sensor_id;sensor_type;location;lat;lon;timestamp;pressure;altitude;pressure_sealevel;temperature;humidity
38530;BME280;24301;54.332;48.386;2022-07-05T00:00:56;98856.59;;;14.55;55.68
38530;BME280;24301;54.332;48.386;2022-07-05T00:03:22;98853.25;;;14.49;55.85
38530;BME280;24301;54.332;48.386;2022-07-05T00:05:49;98865.03;;;14.39;56.25
38530;BME280;24301;54.332;48.386;2022-07-05T00:08:15;98856.38;;;14.34;56.62
38530;BME280;24301;54.332;48.386;2022-07-05T00:10:41;98858.28;;;14.30;57.09
38530;BME280;24301;54.332;48.386;2022-07-05T00:13:07;98867.16;;;14.28;57.24
38530;BME280;24301;54.332;48.386;2022-07-05T00:15:48;98869.00;;;14.24;58.02
38530;BME280;24301;54.332;48.386;2022-07-05T00:18:14;98857.69;;;14.20;58.63
38530;BME280;24301;54.332;48.386;2022-07-05T00:20:45;98864.66;;;14.23;59.19
38530;BME280;24301;54.332;48.386;2022-07-05T00:23:11;98873.56;;;14.20;59.70
38530;BME280;24301;54.332;48.386;2022-07-05T00:25:37;98861.34;;;14.16;60.55
38530;BME280;24301;54.332;48.386;2022-07-05T00:28:03;98870.13;;;14.17;60.45
38530;BME280;24301;54.332;48.386;2022-07-05T00:30:30;98876.22;;;14.19;60.58
38530;BME280;24301;54.332;48.386;2022-07-05T00:32:58;98882.31;;;14.22;60.59
38530;BME280;24301;54.332;48.386;2022-07-05T00:35:25;98877.63;;;14.31;60.58
38530;BME280;24301;54.332;48.386;2022-07-05T00:37:51;98881.63;;;14.44;60.43
38530;BME280;24301;54.332;48.386;2022-07-05T00:40:17;98878.63;;;14.55;60.55
38530;BME280;24301;54.332;48.386;2022-07-05T00:42:43;98881.69;;;14.70;60.55
38530;BME280;24301;54.332;48.386;2022-07-05T00:45:10;98885.44;;;14.91;60.44
38530;BME280;24301;54.332;48.386;2022-07-05T00:47:36;98890.16;;;15.08;60.51
38530;BME280;24301;54.332;48.386;2022-07-05T00:50:02;98894.09;;;15.21;60.51
38530;BME280;24301;54.332;48.386;2022-07-05T00:52:31;98886.31;;;15.42;60.22
38530;BME280;24301;54.332;48.386;2022-07-05T00:54:58;98889.34;;;15.57;59.54
38530;BME280;24301;54.332;48.386;2022-07-05T00:57:28;98888.06;;;15.67;58.72
38530;BME280;24301;54.332;48.386;2022-07-05T00:59:54;98898.03;;;15.84;58.59
38530;BME280;24301;54.332;48.386;2022-07-05T01:02:21;98898.53;;;15.96;58.09
38530;BME280;24301;54.332;48.386;2022-07-05T01:04:49;98900.72;;;16.08;57.25
38530;BME280;24301;54.332;48.386;2022-07-05T01:07:18;98895.88;;;16.19;56.39
38530;BME280;24301;54.332;48.386;2022-07-05T01:09:45;98900.63;;;16.33;55.51
38530;BME280;24301;54.332;48.386;2022-07-05T01:12:10;98896.25;;;16.32;54.12
38530;BME280;24301;54.332;48.386;2022-07-05T01:14:37;98904.09;;;16.35;53.68
38530;BME280;24301;54.332;48.386;2022-07-05T01:17:03;98896.13;;;16.35;53.21
38530;BME280;24301;54.332;48.386;2022-07-05T01:19:32;98899.88;;;16.52;53.04
38530;BME280;24301;54.332;48.386;2022-07-05T01:22:02;98896.03;;;16.81;52.15
38530;BME280;24301;54.332;48.386;2022-07-05T01:24:33;98886.88;;;16.89;51.26
38530;BME280;24301;54.332;48.386;2022-07-05T01:26:59;98894.44;;;17.20;51.05
38530;BME280;24301;54.332;48.386;2022-07-05T01:29:26;98897.22;;;17.59;50.18
38530;BME280;24301;54.332;48.386;2022-07-05T01:32:10;98907.91;;;17.97;49.19
38530;BME280;24301;54.332;48.386;2022-07-05T01:34:38;98901.47;;;18.22;48.90
38530;BME280;24301;54.332;48.386;2022-07-05T01:37:05;98911.53;;;18.15;48.63
38530;BME280;24301;54.332;48.386;2022-07-05T01:39:32;98905.28;;;17.76;49.19
38530;BME280;24301;54.332;48.386;2022-07-05T01:41:58;98903.47;;;17.58;50.02
38530;BME280;24301;54.332;48.386;2022-07-05T01:44:24;98913.53;;;17.70;50.10
38530;BME280;24301;54.332;48.386;2022-07-05T01:46:54;98906.88;;;17.80;49.62
38530;BME280;24301;54.332;48.386;2022-07-05T01:49:22;98918.00;;;18.09;48.99
38530;BME280;24301;54.332;48.386;2022-07-05T01:51:57;98921.88;;;18.02;47.71
38530;BME280;24301;54.332;48.386;2022-07-05T01:54:24;98911.28;;;17.81;47.64
38530;BME280;24301;54.332;48.386;2022-07-05T01:56:51;98918.81;;;18.12;47.68
38530;BME280;24301;54.332;48.386;2022-07-05T01:59:20;98911.28;;;18.39;46.70
38530;BME280;24301;54.332;48.386;2022-07-05T02:01:48;98916.47;;;18.61;46.18
38530;BME280;24301;54.332;48.386;2022-07-05T02:04:15;98914.94;;;18.92;45.81
38530;BME280;24301;54.332;48.386;2022-07-05T02:06:42;98918.75;;;19.41;45.23
38530;BME280;24301;54.332;48.386;2022-07-05T02:09:11;98930.09;;;19.78;43.66
38530;BME280;24301;54.332;48.386;2022-07-05T02:11:38;98917.31;;;19.51;42.90
38530;BME280;24301;54.332;48.386;2022-07-05T02:14:04;98920.72;;;19.71;43.10
38530;BME280;24301;54.332;48.386;2022-07-05T02:17:03;98935.94;;;20.36;41.55
38530;BME280;24301;54.332;48.386;2022-07-05T02:19:30;98922.47;;;20.54;41.60
38530;BME280;24301;54.332;48.386;2022-07-05T02:21:57;98920.59;;;20.88;40.82
38530;BME280;24301;54.332;48.386;2022-07-05T02:24:23;98923.72;;;21.11;40.09
38530;BME280;24301;54.332;48.386;2022-07-05T02:26:59;98921.09;;;21.25;39.67
38530;BME280;24301;54.332;48.386;2022-07-05T02:29:25;98926.47;;;21.54;39.24
38530;BME280;24301;54.332;48.386;2022-07-05T02:31:52;98928.84;;;21.90;39.12
38530;BME280;24301;54.332;48.386;2022-07-05T02:34:18;98934.81;;;22.37;38.18
38530;BME280;24301;54.332;48.386;2022-07-05T02:36:45;98935.09;;;22.32;38.16
38530;BME280;24301;54.332;48.386;2022-07-05T02:39:12;98935.63;;;21.50;38.97
38530;BME280;24301;54.332;48.386;2022-07-05T02:41:38;98951.19;;;20.83;40.78
38530;BME280;24301;54.332;48.386;2022-07-05T02:44:05;98936.00;;;20.35;41.31
38530;BME280;24301;54.332;48.386;2022-07-05T02:46:31;98933.47;;;19.82;42.29
38530;BME280;24301;54.332;48.386;2022-07-05T02:49:00;98957.91;;;19.39;43.35
38530;BME280;24301;54.332;48.386;2022-07-05T02:51:30;98949.91;;;19.21;44.39
38530;BME280;24301;54.332;48.386;2022-07-05T02:53:56;98958.75;;;19.04;45.01
38530;BME280;24301;54.332;48.386;2022-07-05T02:56:23;98969.03;;;18.93;45.31
38530;BME280;24301;54.332;48.386;2022-07-05T02:58:49;98976.94;;;18.58;46.15
38530;BME280;24301;54.332;48.386;2022-07-05T03:01:16;98979.13;;;19.41;44.69
38530;BME280;24301;54.332;48.386;2022-07-05T03:03:42;98981.94;;;20.24;43.73
38530;BME280;24301;54.332;48.386;2022-07-05T03:06:08;98969.66;;;21.02;41.87
38530;BME280;24301;54.332;48.386;2022-07-05T03:08:35;98954.47;;;21.49;41.05
38530;BME280;24301;54.332;48.386;2022-07-05T03:11:02;98959.28;;;22.16;40.19
38530;BME280;24301;54.332;48.386;2022-07-05T03:13:29;98957.44;;;22.60;38.93
38530;BME280;24301;54.332;48.386;2022-07-05T03:15:55;98960.44;;;22.27;39.27
38530;BME280;24301;54.332;48.386;2022-07-05T03:18:22;98973.03;;;22.39;38.93
38530;BME280;24301;54.332;48.386;2022-07-05T03:20:48;98962.75;;;22.75;37.90
38530;BME280;24301;54.332;48.386;2022-07-05T03:23:16;98968.97;;;23.03;37.55
38530;BME280;24301;54.332;48.386;2022-07-05T03:25:48;98968.69;;;22.80;37.21
38530;BME280;24301;54.332;48.386;2022-07-05T03:28:15;98985.09;;;22.61;36.30
38530;BME280;24301;54.332;48.386;2022-07-05T03:30:43;98968.09;;;22.18;37.56
38530;BME280;24301;54.332;48.386;2022-07-05T03:33:10;98978.22;;;21.84;37.39
38530;BME280;24301;54.332;48.386;2022-07-05T03:35:39;98991.41;;;21.57;38.30
38530;BME280;24301;54.332;48.386;2022-07-05T03:38:05;98974.66;;;21.69;38.15
38530;BME280;24301;54.332;48.386;2022-07-05T03:40:31;98987.38;;;21.80;37.89
38530;BME280;24301;54.332;48.386;2022-07-05T03:42:58;98983.75;;;22.39;37.51
38530;BME280;24301;54.332;48.386;2022-07-05T03:45:26;98992.19;;;22.89;36.15
38530;BME280;24301;54.332;48.386;2022-07-05T03:47:52;98978.34;;;22.82;35.36
38530;BME280;24301;54.332;48.386;2022-07-05T03:50:18;98980.59;;;22.89;35.59
38530;BME280;24301;54.332;48.386;2022-07-05T03:52:44;98985.09;;;22.61;35.15
38530;BME280;24301;54.332;48.386;2022-07-05T03:55:10;98985.34;;;22.98;35.91
38530;BME280;24301;54.332;48.386;2022-07-05T03:57:36;98992.69;;;23.36;35.18
38530;BME280;24301;54.332;48.386;2022-07-05T04:00:03;98985.75;;;23.60;34.98
38530;BME280;24301;54.332;48.386;2022-07-05T04:02:39;98973.59;;;23.01;35.84
38530;BME280;24301;54.332;48.386;2022-07-05T04:05:07;99022.47;;;22.62;36.51
38530;BME280;24301;54.332;48.386;2022-07-05T04:07:34;98986.63;;;22.21;36.64
38530;BME280;24301;54.332;48.386;2022-07-05T04:10:00;99003.66;;;22.49;35.97
38530;BME280;24301;54.332;48.386;2022-07-05T04:12:28;98997.06;;;23.10;35.51
38530;BME280;24301;54.332;48.386;2022-07-05T04:14:54;98987.81;;;23.69;34.65
38530;BME280;24301;54.332;48.386;2022-07-05T04:17:22;99028.53;;;23.48;34.45
38530;BME280;24301;54.332;48.386;2022-07-05T04:19:49;99001.34;;;22.58;35.44
38530;BME280;24301;54.332;48.386;2022-07-05T04:22:15;99010.25;;;23.00;35.88
38530;BME280;24301;54.332;48.386;2022-07-05T04:24:58;99002.28;;;23.53;34.34
38530;BME280;24301;54.332;48.386;2022-07-05T04:27:48;99006.53;;;24.73;33.68
38530;BME280;24301;54.332;48.386;2022-07-05T04:30:16;99022.38;;;25.02;32.26
38530;BME280;24301;54.332;48.386;2022-07-05T04:33:01;99008.28;;;25.47;31.95
38530;BME280;24301;54.332;48.386;2022-07-05T04:35:27;99008.94;;;25.62;31.37
38530;BME280;24301;54.332;48.386;2022-07-05T04:37:54;99013.09;;;25.54;30.78
38530;BME280;24301;54.332;48.386;2022-07-05T04:40:21;99007.88;;;26.23;30.55
38530;BME280;24301;54.332;48.386;2022-07-05T04:42:51;99013.72;;;26.74;30.25
38530;BME280;24301;54.332;48.386;2022-07-05T04:45:19;98999.28;;;27.51;28.81
38530;BME280;24301;54.332;48.386;2022-07-05T04:47:46;99027.19;;;26.62;28.82
38530;BME280;24301;54.332;48.386;2022-07-05T04:50:13;99013.00;;;26.15;29.44
38530;BME280;24301;54.332;48.386;2022-07-05T04:52:40;99018.16;;;26.41;29.75
38530;BME280;24301;54.332;48.386;2022-07-05T04:55:07;99007.94;;;25.99;30.24
38530;BME280;24301;54.332;48.386;2022-07-05T04:57:40;99010.31;;;26.26;30.44
38530;BME280;24301;54.332;48.386;2022-07-05T05:00:26;99025.75;;;26.47;29.87
38530;BME280;24301;54.332;48.386;2022-07-05T05:02:52;99020.66;;;25.01;32.55
38530;BME280;24301;54.332;48.386;2022-07-05T05:05:18;99005.72;;;24.46;33.56
38530;BME280;24301;54.332;48.386;2022-07-05T05:07:45;99013.97;;;24.56;33.75
38530;BME280;24301;54.332;48.386;2022-07-05T05:10:11;99013.38;;;23.75;34.47
38530;BME280;24301;54.332;48.386;2022-07-05T05:12:38;99022.84;;;22.71;36.23
38530;BME280;24301;54.332;48.386;2022-07-05T05:15:05;99034.34;;;21.53;38.60
38530;BME280;24301;54.332;48.386;2022-07-05T05:17:44;99052.72;;;20.81;40.46
38530;BME280;24301;54.332;48.386;2022-07-05T05:20:15;99037.78;;;21.72;39.16
38530;BME280;24301;54.332;48.386;2022-07-05T05:22:42;99039.59;;;23.57;36.92
38530;BME280;24301;54.332;48.386;2022-07-05T05:25:09;99048.56;;;23.96;36.17
38530;BME280;24301;54.332;48.386;2022-07-05T05:27:44;99045.25;;;25.56;33.16
38530;BME280;24301;54.332;48.386;2022-07-05T05:30:12;99050.75;;;24.17;33.03
38530;BME280;24301;54.332;48.386;2022-07-05T05:32:48;99033.88;;;23.89;32.96
38530;BME280;24301;54.332;48.386;2022-07-05T05:35:14;99037.94;;;25.58;31.10
38530;BME280;24301;54.332;48.386;2022-07-05T05:37:54;99034.66;;;26.93;29.37
38530;BME280;24301;54.332;48.386;2022-07-05T05:40:22;99029.13;;;27.71;27.91
38530;BME280;24301;54.332;48.386;2022-07-05T05:42:49;99022.53;;;27.85;27.27
38530;BME280;24301;54.332;48.386;2022-07-05T05:45:20;99026.88;;;27.11;27.87
38530;BME280;24301;54.332;48.386;2022-07-05T05:47:51;99046.34;;;27.59;27.47
38530;BME280;24301;54.332;48.386;2022-07-05T05:50:32;99041.75;;;26.82;28.01
38530;BME280;24301;54.332;48.386;2022-07-05T05:52:59;99036.88;;;26.42;29.46
38530;BME280;24301;54.332;48.386;2022-07-05T05:55:26;99033.75;;;25.90;29.94
38530;BME280;24301;54.332;48.386;2022-07-05T05:58:18;99021.56;;;25.73;27.86
38530;BME280;24301;54.332;48.386;2022-07-05T06:00:46;99019.31;;;24.69;28.29
38530;BME280;24301;54.332;48.386;2022-07-05T06:03:23;99043.19;;;25.11;27.97
38530;BME280;24301;54.332;48.386;2022-07-05T06:05:49;99015.94;;;25.64;28.13
38530;BME280;24301;54.332;48.386;2022-07-05T06:08:15;99022.66;;;26.51;27.41
38530;BME280;24301;54.332;48.386;2022-07-05T06:10:42;99008.84;;;26.33;27.39
38530;BME280;24301;54.332;48.386;2022-07-05T06:13:11;99036.00;;;26.64;27.95
38530;BME280;24301;54.332;48.386;2022-07-05T06:15:37;99026.38;;;27.17;27.71
38530;BME280;24301;54.332;48.386;2022-07-05T06:18:04;99048.38;;;27.34;26.32
38530;BME280;24301;54.332;48.386;2022-07-05T06:20:32;99019.28;;;27.16;26.21
38530;BME280;24301;54.332;48.386;2022-07-05T06:22:59;99016.88;;;27.34;26.38
38530;BME280;24301;54.332;48.386;2022-07-05T06:25:26;99042.09;;;28.20;25.79
38530;BME280;24301;54.332;48.386;2022-07-05T06:27:54;99030.91;;;27.17;26.61
38530;BME280;24301;54.332;48.386;2022-07-05T06:30:22;99055.19;;;27.49;26.83
38530;BME280;24301;54.332;48.386;2022-07-05T06:32:49;99032.13;;;27.99;26.69
38530;BME280;24301;54.332;48.386;2022-07-05T06:35:15;99035.56;;;28.01;26.14
38530;BME280;24301;54.332;48.386;2022-07-05T06:37:49;99032.78;;;27.91;26.61
38530;BME280;24301;54.332;48.386;2022-07-05T06:40:21;99034.75;;;26.80;27.84
38530;BME280;24301;54.332;48.386;2022-07-05T06:42:49;99034.31;;;26.41;28.91
38530;BME280;24301;54.332;48.386;2022-07-05T06:45:43;99036.38;;;26.82;28.07
38530;BME280;24301;54.332;48.386;2022-07-05T06:48:10;99046.56;;;27.23;28.23
38530;BME280;24301;54.332;48.386;2022-07-05T06:50:42;99051.03;;;27.45;27.10
38530;BME280;24301;54.332;48.386;2022-07-05T06:53:09;99040.84;;;27.16;27.97
38530;BME280;24301;54.332;48.386;2022-07-05T06:55:36;99052.09;;;28.08;26.75
38530;BME280;24301;54.332;48.386;2022-07-05T06:58:06;99042.38;;;26.98;27.12
38530;BME280;24301;54.332;48.386;2022-07-05T07:00:33;99045.34;;;25.79;28.71
38530;BME280;24301;54.332;48.386;2022-07-05T07:03:01;99045.19;;;24.07;31.52
38530;BME280;24301;54.332;48.386;2022-07-05T07:05:30;99051.19;;;24.10;31.10
38530;BME280;24301;54.332;48.386;2022-07-05T07:07:56;99047.66;;;24.73;30.03
38530;BME280;24301;54.332;48.386;2022-07-05T07:10:41;99051.72;;;25.89;29.25
38530;BME280;24301;54.332;48.386;2022-07-05T07:13:07;99058.81;;;24.93;30.14
38530;BME280;24301;54.332;48.386;2022-07-05T07:15:33;99053.81;;;25.37;28.63
38530;BME280;24301;54.332;48.386;2022-07-05T07:33:07;99044.84;;;25.01;27.32
38530;BME280;24301;54.332;48.386;2022-07-05T07:35:33;99035.00;;;23.72;29.05
38530;BME280;24301;54.332;48.386;2022-07-05T07:45:20;99045.78;;;22.75;32.29
38530;BME280;24301;54.332;48.386;2022-07-05T07:48:26;99056.38;;;22.18;32.67
38530;BME280;24301;54.332;48.386;2022-07-05T07:50:54;99051.16;;;22.17;32.94
38530;BME280;24301;54.332;48.386;2022-07-05T07:53:43;99041.41;;;22.45;31.94
38530;BME280;24301;54.332;48.386;2022-07-05T07:56:10;99054.25;;;21.64;33.37
38530;BME280;24301;54.332;48.386;2022-07-05T07:58:36;99057.22;;;20.80;34.86
38530;BME280;24301;54.332;48.386;2022-07-05T08:01:28;99060.16;;;20.58;35.64
38530;BME280;24301;54.332;48.386;2022-07-05T08:10:08;99054.78;;;20.42;35.72
38530;BME280;24301;54.332;48.386;2022-07-05T08:12:40;99096.13;;;20.17;36.38
38530;BME280;24301;54.332;48.386;2022-07-05T08:15:06;99063.75;;;20.41;36.38
38530;BME280;24301;54.332;48.386;2022-07-05T08:17:33;99071.09;;;20.53;36.11
38530;BME280;24301;54.332;48.386;2022-07-05T08:19:59;99055.16;;;20.52;35.90
38530;BME280;24301;54.332;48.386;2022-07-05T08:22:44;99068.16;;;19.91;36.60
38530;BME280;24301;54.332;48.386;2022-07-05T08:25:10;99076.78;;;19.96;36.54
38530;BME280;24301;54.332;48.386;2022-07-05T08:27:36;99076.72;;;19.78;37.24
38530;BME280;24301;54.332;48.386;2022-07-05T08:30:02;99074.91;;;19.26;37.98
38530;BME280;24301;54.332;48.386;2022-07-05T08:32:29;99074.16;;;18.65;39.37
38530;BME280;24301;54.332;48.386;2022-07-05T08:34:55;99074.59;;;18.36;38.69
38530;BME280;24301;54.332;48.386;2022-07-05T08:37:22;99071.78;;;18.40;39.21
38530;BME280;24301;54.332;48.386;2022-07-05T08:39:48;99077.84;;;18.62;38.81
38530;BME280;24301;54.332;48.386;2022-07-05T08:42:15;99092.50;;;18.52;40.10
38530;BME280;24301;54.332;48.386;2022-07-05T08:44:42;99112.41;;;18.43;40.93
38530;BME280;24301;54.332;48.386;2022-07-05T08:47:10;99089.63;;;18.37;41.14
38530;BME280;24301;54.332;48.386;2022-07-05T08:49:38;99092.00;;;18.23;41.54
38530;BME280;24301;54.332;48.386;2022-07-05T08:52:10;99103.78;;;17.97;43.48
38530;BME280;24301;54.332;48.386;2022-07-05T08:54:37;99070.53;;;17.86;43.37
38530;BME280;24301;54.332;48.386;2022-07-05T08:57:03;99112.56;;;17.76;44.28
38530;BME280;24301;54.332;48.386;2022-07-05T08:59:30;99092.38;;;17.72;43.53
38530;BME280;24301;54.332;48.386;2022-07-05T09:01:56;99106.31;;;17.77;43.81
38530;BME280;24301;54.332;48.386;2022-07-05T09:04:24;99090.13;;;17.41;44.42
38530;BME280;24301;54.332;48.386;2022-07-05T09:06:53;99109.91;;;17.56;44.99
38530;BME280;24301;54.332;48.386;2022-07-05T09:09:22;99083.56;;;17.49;44.42
38530;BME280;24301;54.332;48.386;2022-07-05T09:11:56;99095.44;;;17.63;44.68
38530;BME280;24301;54.332;48.386;2022-07-05T09:14:24;99092.09;;;17.58;44.41
38530;BME280;24301;54.332;48.386;2022-07-05T09:16:54;99094.94;;;17.53;45.32
38530;BME280;24301;54.332;48.386;2022-07-05T09:19:22;99090.25;;;17.60;44.60
38530;BME280;24301;54.332;48.386;2022-07-05T09:22:00;99096.97;;;17.69;44.10
38530;BME280;24301;54.332;48.386;2022-07-05T09:24:28;99098.63;;;17.71;44.16
38530;BME280;24301;54.332;48.386;2022-07-05T09:27:01;99101.41;;;17.68;43.27
38530;BME280;24301;54.332;48.386;2022-07-05T09:29:28;99097.88;;;17.67;43.16
38530;BME280;24301;54.332;48.386;2022-07-05T09:31:54;99098.78;;;17.89;43.58
38530;BME280;24301;54.332;48.386;2022-07-05T09:34:21;99093.84;;;18.02;43.35
38530;BME280;24301;54.332;48.386;2022-07-05T09:39:17;99107.78;;;18.28;42.74
38530;BME280;24301;54.332;48.386;2022-07-05T09:41:43;99101.72;;;18.24;42.67
38530;BME280;24301;54.332;48.386;2022-07-05T09:44:09;99103.06;;;18.34;42.84
38530;BME280;24301;54.332;48.386;2022-07-05T09:46:35;99103.41;;;18.46;42.39
38530;BME280;24301;54.332;48.386;2022-07-05T09:49:02;99098.72;;;18.32;42.72
38530;BME280;24301;54.332;48.386;2022-07-05T09:51:46;99094.38;;;18.29;43.40
38530;BME280;24301;54.332;48.386;2022-07-05T09:54:14;99096.69;;;18.18;43.37
38530;BME280;24301;54.332;48.386;2022-07-05T09:56:47;99111.44;;;18.25;42.73
38530;BME280;24301;54.332;48.386;2022-07-05T09:59:16;99095.22;;;18.11;42.53
38530;BME280;24301;54.332;48.386;2022-07-05T10:01:44;99110.44;;;18.07;43.06
38530;BME280;24301;54.332;48.386;2022-07-05T10:04:10;99101.94;;;18.19;42.96
38530;BME280;24301;54.332;48.386;2022-07-05T10:06:36;99099.78;;;18.48;42.60
38530;BME280;24301;54.332;48.386;2022-07-05T10:09:03;99101.19;;;18.36;42.52
38530;BME280;24301;54.332;48.386;2022-07-05T10:11:30;99095.41;;;18.27;42.45
38530;BME280;24301;54.332;48.386;2022-07-05T10:13:58;99100.75;;;18.46;42.29
38530;BME280;24301;54.332;48.386;2022-07-05T10:16:25;99091.84;;;18.47;42.00
38530;BME280;24301;54.332;48.386;2022-07-05T10:18:53;99099.03;;;18.45;41.88
38530;BME280;24301;54.332;48.386;2022-07-05T10:21:20;99091.47;;;18.35;42.22
38530;BME280;24301;54.332;48.386;2022-07-05T10:23:50;99095.06;;;18.34;41.39
38530;BME280;24301;54.332;48.386;2022-07-05T10:26:22;99088.41;;;18.24;41.96
38530;BME280;24301;54.332;48.386;2022-07-05T10:28:53;99098.91;;;18.27;42.63
38530;BME280;24301;54.332;48.386;2022-07-05T10:31:28;99092.53;;;18.31;42.87
38530;BME280;24301;54.332;48.386;2022-07-05T10:33:56;99096.09;;;18.51;42.91
38530;BME280;24301;54.332;48.386;2022-07-05T10:36:22;99101.56;;;18.48;42.48
38530;BME280;24301;54.332;48.386;2022-07-05T10:38:49;99108.19;;;18.58;42.51
38530;BME280;24301;54.332;48.386;2022-07-05T10:41:19;99104.03;;;18.72;42.04
38530;BME280;24301;54.332;48.386;2022-07-05T10:43:54;99104.47;;;18.81;41.55
38530;BME280;24301;54.332;48.386;2022-07-05T10:46:37;99092.16;;;18.60;42.39
38530;BME280;24301;54.332;48.386;2022-07-05T10:49:15;99086.91;;;18.58;42.26
38530;BME280;24301;54.332;48.386;2022-07-05T10:51:43;99085.09;;;18.78;42.26
38530;BME280;24301;54.332;48.386;2022-07-05T10:54:09;99094.66;;;18.63;41.98
38530;BME280;24301;54.332;48.386;2022-07-05T10:56:35;99097.03;;;18.69;42.18
38530;BME280;24301;54.332;48.386;2022-07-05T10:59:08;99108.72;;;18.66;41.74
38530;BME280;24301;54.332;48.386;2022-07-05T11:01:43;99075.41;;;18.58;42.18
38530;BME280;24301;54.332;48.386;2022-07-05T11:04:17;99073.63;;;18.77;41.81
38530;BME280;24301;54.332;48.386;2022-07-05T11:06:44;99076.78;;;18.66;40.70
38530;BME280;24301;54.332;48.386;2022-07-05T11:09:16;99066.19;;;18.46;41.28
38530;BME280;24301;54.332;48.386;2022-07-05T11:19:58;99080.66;;;18.59;41.40
38530;BME280;24301;54.332;48.386;2022-07-05T11:22:25;99067.22;;;18.62;41.33
38530;BME280;24301;54.332;48.386;2022-07-05T11:25:00;99075.69;;;18.51;42.00
38530;BME280;24301;54.332;48.386;2022-07-05T11:27:27;99066.56;;;18.57;41.85
38530;BME280;24301;54.332;48.386;2022-07-05T11:29:55;99056.78;;;18.58;41.81
38530;BME280;24301;54.332;48.386;2022-07-05T11:32:43;99079.00;;;18.57;40.99
38530;BME280;24301;54.332;48.386;2022-07-05T11:35:14;99062.16;;;18.56;41.14
38530;BME280;24301;54.332;48.386;2022-07-05T11:38:04;99064.81;;;18.56;41.68
38530;BME280;24301;54.332;48.386;2022-07-05T11:40:36;99073.19;;;18.67;41.48
38530;BME280;24301;54.332;48.386;2022-07-05T11:43:07;99059.38;;;18.59;41.62
38530;BME280;24301;54.332;48.386;2022-07-05T11:45:34;99071.75;;;18.60;42.13
38530;BME280;24301;54.332;48.386;2022-07-05T11:48:00;99073.09;;;18.69;42.01
38530;BME280;24301;54.332;48.386;2022-07-05T11:50:31;99069.88;;;18.81;41.48
38530;BME280;24301;54.332;48.386;2022-07-05T11:53:00;99065.28;;;18.85;41.11
38530;BME280;24301;54.332;48.386;2022-07-05T11:55:29;99062.75;;;18.82;41.52
38530;BME280;24301;54.332;48.386;2022-07-05T11:57:56;99065.13;;;18.88;41.85
38530;BME280;24301;54.332;48.386;2022-07-05T12:00:30;99075.19;;;19.01;41.67
38530;BME280;24301;54.332;48.386;2022-07-05T12:02:56;99080.00;;;18.92;41.60
38530;BME280;24301;54.332;48.386;2022-07-05T12:05:28;99083.88;;;18.66;41.31
38530;BME280;24301;54.332;48.386;2022-07-05T12:07:54;99065.84;;;18.53;41.83
38530;BME280;24301;54.332;48.386;2022-07-05T12:10:20;99069.13;;;18.59;42.04
38530;BME280;24301;54.332;48.386;2022-07-05T12:13:08;99065.25;;;18.66;41.88
38530;BME280;24301;54.332;48.386;2022-07-05T12:15:38;99075.03;;;18.65;42.28
38530;BME280;24301;54.332;48.386;2022-07-05T12:18:05;99070.13;;;18.56;41.65
38530;BME280;24301;54.332;48.386;2022-07-05T12:20:38;99074.31;;;18.62;41.08
38530;BME280;24301;54.332;48.386;2022-07-05T12:23:06;99076.63;;;18.70;41.83
38530;BME280;24301;54.332;48.386;2022-07-05T12:25:38;99070.81;;;18.80;41.59
38530;BME280;24301;54.332;48.386;2022-07-05T12:28:09;99078.19;;;18.74;41.48
38530;BME280;24301;54.332;48.386;2022-07-05T12:30:35;99076.19;;;18.79;41.66
38530;BME280;24301;54.332;48.386;2022-07-05T12:33:06;99078.94;;;18.77;41.97
38530;BME280;24301;54.332;48.386;2022-07-05T12:35:46;99070.94;;;18.58;41.48
38530;BME280;24301;54.332;48.386;2022-07-05T12:38:15;99084.50;;;18.52;41.28
38530;BME280;24301;54.332;48.386;2022-07-05T12:40:45;99084.66;;;18.49;41.21
38530;BME280;24301;54.332;48.386;2022-07-05T12:43:12;99059.38;;;18.59;41.61
38530;BME280;24301;54.332;48.386;2022-07-05T12:45:43;99061.78;;;18.64;42.20
38530;BME280;24301;54.332;48.386;2022-07-05T12:48:10;99077.63;;;18.67;42.57
38530;BME280;24301;54.332;48.386;2022-07-05T12:53:12;99069.91;;;18.80;42.61
38530;BME280;24301;54.332;48.386;2022-07-05T12:56:02;99060.44;;;18.93;42.33
38530;BME280;24301;54.332;48.386;2022-07-05T12:58:50;99094.47;;;19.06;41.73
38530;BME280;24301;54.332;48.386;2022-07-05T13:06:52;99054.31;;;18.91;40.57
38530;BME280;24301;54.332;48.386;2022-07-05T13:09:36;99050.09;;;18.87;40.92
38530;BME280;24301;54.332;48.386;2022-07-05T13:12:07;99041.78;;;18.93;41.27
38530;BME280;24301;54.332;48.386;2022-07-05T13:14:34;99046.13;;;18.96;41.06
38530;BME280;24301;54.332;48.386;2022-07-05T13:17:00;99063.66;;;18.81;41.58
38530;BME280;24301;54.332;48.386;2022-07-05T13:19:26;99045.56;;;18.70;41.47
38530;BME280;24301;54.332;48.386;2022-07-05T13:21:54;99048.41;;;18.85;41.43
38530;BME280;24301;54.332;48.386;2022-07-05T13:24:19;99054.78;;;18.82;41.60
38530;BME280;24301;54.332;48.386;2022-07-05T13:26:45;99053.84;;;18.83;41.02
38530;BME280;24301;54.332;48.386;2022-07-05T13:29:11;99061.00;;;18.81;40.49
38530;BME280;24301;54.332;48.386;2022-07-05T13:31:37;99068.09;;;18.82;40.67
38530;BME280;24301;54.332;48.386;2022-07-05T13:34:03;99051.97;;;18.85;40.80
38530;BME280;24301;54.332;48.386;2022-07-05T13:36:32;99056.75;;;18.77;41.30
38530;BME280;24301;54.332;48.386;2022-07-05T13:39:09;99041.66;;;18.77;41.07
38530;BME280;24301;54.332;48.386;2022-07-05T13:41:55;99043.69;;;18.72;42.00
38530;BME280;24301;54.332;48.386;2022-07-05T13:44:21;99037.50;;;18.72;41.50
38530;BME280;24301;54.332;48.386;2022-07-05T13:46:48;99047.94;;;18.76;41.82
38530;BME280;24301;54.332;48.386;2022-07-05T13:49:14;99045.69;;;18.86;41.67